sensor_id;sensor_type;location;lat;lon;timestamp;pressure;altitude;pressure_sealevel;temperature;humidity
13695;BME280;6919;52.344;14.518;2022-07-19T00:00:19;101201.53;;;19.04;100.00
13695;BME280;6919;52.344;14.518;2022-07-19T00:02:48;101197.97;;;19.04;100.00
13695;BME280;6919;52.344;14.518;2022-07-19T00:05:17;101198.16;;;19.02;100.00
13695;BME280;6919;52.344;14.518;2022-07-19T00:07:47;101192.66;;;18.96;100.00
13695;BME280;6919;52.344;14.518;2022-07-19T00:10:18;101187.59;;;18.93;100.00
13695;BME280;6919;52.344;14.518;2022-07-19T00:12:48;101183.84;;;18.94;100.00
13695;BME280;6919;52.344;14.518;2022-07-19T00:15:16;101197.84;;;18.91;100.00
13695;BME280;6919;52.344;14.518;2022-07-19T00:17:48;101185.41;;;18.82;100.00
13695;BME280;6919;52.344;14.518;2022-07-19T00:20:19;101189.16;;;18.81;100.00
13695;BME280;6919;52.344;14.518;2022-07-19T00:22:50;101188.25;;;18.74;100.00
13695;BME280;6919;52.344;14.518;2022-07-19T00:25:18;101191.41;;;18.77;100.00
13695;BME280;6919;52.344;14.518;2022-07-19T00:27:46;101189.94;;;18.75;100.00
13695;BME280;6919;52.344;14.518;2022-07-19T00:30:15;101187.41;;;18.73;100.00
13695;BME280;6919;52.344;14.518;2022-07-19T00:32:43;101187.16;;;18.68;100.00
13695;BME280;6919;52.344;14.518;2022-07-19T00:35:11;101178.53;;;18.65;100.00
13695;BME280;6919;52.344;14.518;2022-07-19T00:37:39;101175.94;;;18.57;100.00
13695;BME280;6919;52.344;14.518;2022-07-19T00:40:20;101166.69;;;18.51;100.00
13695;BME280;6919;52.344;14.518;2022-07-19T00:42:50;101176.63;;;18.44;100.00
13695;BME280;6919;52.344;14.518;2022-07-19T00:45:18;101172.31;;;18.35;100.00
13695;BME280;6919;52.344;14.518;2022-07-19T00:47:46;101175.78;;;18.29;100.00
13695;BME280;6919;52.344;14.518;2022-07-19T00:50:15;101169.25;;;18.24;100.00
13695;BME280;6919;52.344;14.518;2022-07-19T00:52:48;101177.47;;;18.16;100.00
13695;BME280;6919;52.344;14.518;2022-07-19T00:55:20;101174.50;;;18.11;100.00
13695;BME280;6919;52.344;14.518;2022-07-19T00:57:49;101171.31;;;18.07;100.00
13695;BME280;6919;52.344;14.518;2022-07-19T01:00:17;101175.25;;;18.05;100.00
13695;BME280;6919;52.344;14.518;2022-07-19T01:02:46;101176.28;;;18.04;100.00
13695;BME280;6919;52.344;14.518;2022-07-19T01:05:15;101173.09;;;18.00;100.00
13695;BME280;6919;52.344;14.518;2022-07-19T01:07:43;101165.44;;;18.04;100.00
13695;BME280;6919;52.344;14.518;2022-07-19T01:10:13;101170.19;;;18.02;100.00
13695;BME280;6919;52.344;14.518;2022-07-19T01:12:44;101182.09;;;18.01;100.00
13695;BME280;6919;52.344;14.518;2022-07-19T01:15:16;101177.03;;;17.98;100.00
13695;BME280;6919;52.344;14.518;2022-07-19T01:17:45;101173.38;;;17.91;100.00
13695;BME280;6919;52.344;14.518;2022-07-19T01:20:14;101178.72;;;17.84;100.00
13695;BME280;6919;52.344;14.518;2022-07-19T01:22:45;101186.31;;;17.89;100.00
13695;BME280;6919;52.344;14.518;2022-07-19T01:25:14;101180.53;;;17.92;100.00
13695;BME280;6919;52.344;14.518;2022-07-19T01:27:45;101171.72;;;17.90;100.00
13695;BME280;6919;52.344;14.518;2022-07-19T01:30:17;101180.59;;;17.84;100.00
13695;BME280;6919;52.344;14.518;2022-07-19T01:32:46;101184.72;;;17.80;100.00
13695;BME280;6919;52.344;14.518;2022-07-19T01:35:15;101184.88;;;17.78;100.00
13695;BME280;6919;52.344;14.518;2022-07-19T01:37:45;101186.97;;;17.76;100.00
13695;BME280;6919;52.344;14.518;2022-07-19T01:40:17;101184.06;;;17.78;100.00
13695;BME280;6919;52.344;14.518;2022-07-19T01:42:47;101176.94;;;17.77;100.00
13695;BME280;6919;52.344;14.518;2022-07-19T01:45:16;101175.94;;;17.78;100.00
13695;BME280;6919;52.344;14.518;2022-07-19T01:47:45;101179.19;;;17.73;100.00
13695;BME280;6919;52.344;14.518;2022-07-19T01:50:16;101176.84;;;17.70;100.00
13695;BME280;6919;52.344;14.518;2022-07-19T01:52:46;101177.59;;;17.64;100.00
13695;BME280;6919;52.344;14.518;2022-07-19T01:55:17;101182.91;;;17.58;100.00
13695;BME280;6919;52.344;14.518;2022-07-19T01:57:46;101179.91;;;17.52;100.00
13695;BME280;6919;52.344;14.518;2022-07-19T02:00:14;101186.28;;;17.45;100.00
13695;BME280;6919;52.344;14.518;2022-07-19T02:02:43;101183.41;;;17.38;100.00
13695;BME280;6919;52.344;14.518;2022-07-19T02:05:12;101181.91;;;17.36;100.00
13695;BME280;6919;52.344;14.518;2022-07-19T02:07:46;101175.84;;;17.34;100.00
13695;BME280;6919;52.344;14.518;2022-07-19T02:10:16;101174.53;;;17.30;100.00
13695;BME280;6919;52.344;14.518;2022-07-19T02:12:45;101174.34;;;17.31;100.00
13695;BME280;6919;52.344;14.518;2022-07-19T02:15:13;101176.38;;;17.29;100.00
13695;BME280;6919;52.344;14.518;2022-07-19T02:17:42;101173.00;;;17.27;100.00
13695;BME280;6919;52.344;14.518;2022-07-19T02:20:11;101173.00;;;17.27;100.00
13695;BME280;6919;52.344;14.518;2022-07-19T02:22:41;101167.13;;;17.24;100.00
13695;BME280;6919;52.344;14.518;2022-07-19T02:25:11;101170.00;;;17.22;100.00
13695;BME280;6919;52.344;14.518;2022-07-19T02:27:40;101162.06;;;17.21;100.00
13695;BME280;6919;52.344;14.518;2022-07-19T02:30:10;101163.47;;;17.17;100.00
13695;BME280;6919;52.344;14.518;2022-07-19T02:32:40;101160.94;;;17.15;100.00
13695;BME280;6919;52.344;14.518;2022-07-19T02:35:10;101159.63;;;17.11;100.00
13695;BME280;6919;52.344;14.518;2022-07-19T02:37:40;101164.19;;;17.11;100.00
13695;BME280;6919;52.344;14.518;2022-07-19T02:40:10;101165.38;;;17.08;100.00
13695;BME280;6919;52.344;14.518;2022-07-19T02:42:39;101164.72;;;17.06;100.00
13695;BME280;6919;52.344;14.518;2022-07-19T02:45:08;101156.97;;;17.03;100.00
13695;BME280;6919;52.344;14.518;2022-07-19T02:47:37;101164.44;;;17.01;100.00
13695;BME280;6919;52.344;14.518;2022-07-19T02:50:07;101162.59;;;17.02;100.00
13695;BME280;6919;52.344;14.518;2022-07-19T02:52:35;101160.88;;;17.01;100.00
13695;BME280;6919;52.344;14.518;2022-07-19T02:55:05;101153.97;;;16.98;100.00
13695;BME280;6919;52.344;14.518;2022-07-19T02:57:34;101161.06;;;16.99;100.00
13695;BME280;6919;52.344;14.518;2022-07-19T03:00:05;101155.00;;;16.97;100.00
13695;BME280;6919;52.344;14.518;2022-07-19T03:02:34;101158.72;;;16.96;100.00
13695;BME280;6919;52.344;14.518;2022-07-19T03:05:03;101159.38;;;16.98;100.00
13695;BME280;6919;52.344;14.518;2022-07-19T03:07:32;101152.28;;;16.97;100.00
13695;BME280;6919;52.344;14.518;2022-07-19T03:10:00;101156.66;;;16.98;100.00
13695;BME280;6919;52.344;14.518;2022-07-19T03:12:28;101149.56;;;16.97;100.00
13695;BME280;6919;52.344;14.518;2022-07-19T03:14:58;101160.75;;;16.94;100.00
13695;BME280;6919;52.344;14.518;2022-07-19T03:17:26;101155.06;;;16.89;100.00
13695;BME280;6919;52.344;14.518;2022-07-19T03:19:54;101160.84;;;16.86;100.00
13695;BME280;6919;52.344;14.518;2022-07-19T03:22:22;101154.56;;;16.86;100.00
13695;BME280;6919;52.344;14.518;2022-07-19T03:24:51;101151.69;;;16.87;100.00
13695;BME280;6919;52.344;14.518;2022-07-19T03:27:19;101146.63;;;16.84;100.00
13695;BME280;6919;52.344;14.518;2022-07-19T03:29:47;101156.06;;;16.88;100.00
13695;BME280;6919;52.344;14.518;2022-07-19T03:32:17;101163.00;;;16.91;100.00
13695;BME280;6919;52.344;14.518;2022-07-19T03:34:45;101160.41;;;16.97;100.00
13695;BME280;6919;52.344;14.518;2022-07-19T03:37:13;101156.03;;;16.96;100.00
13695;BME280;6919;52.344;14.518;2022-07-19T03:39:42;101162.25;;;16.97;100.00
13695;BME280;6919;52.344;14.518;2022-07-19T03:42:10;101168.53;;;16.97;100.00
13695;BME280;6919;52.344;14.518;2022-07-19T03:44:38;101150.53;;;17.04;100.00
13695;BME280;6919;52.344;14.518;2022-07-19T03:47:06;101151.84;;;17.08;100.00
13695;BME280;6919;52.344;14.518;2022-07-19T03:49:36;101160.66;;;17.10;100.00
13695;BME280;6919;52.344;14.518;2022-07-19T03:52:05;101166.00;;;17.18;100.00
13695;BME280;6919;52.344;14.518;2022-07-19T03:54:33;101165.53;;;17.29;100.00
13695;BME280;6919;52.344;14.518;2022-07-19T03:57:01;101157.03;;;17.32;100.00
13695;BME280;6919;52.344;14.518;2022-07-19T03:59:30;101161.19;;;17.43;100.00
13695;BME280;6919;52.344;14.518;2022-07-19T04:01:58;101162.44;;;17.55;100.00
13695;BME280;6919;52.344;14.518;2022-07-19T04:04:27;101156.56;;;17.66;100.00
13695;BME280;6919;52.344;14.518;2022-07-19T04:06:57;101155.53;;;17.82;100.00
13695;BME280;6919;52.344;14.518;2022-07-19T04:09:25;101156.28;;;17.90;100.00
13695;BME280;6919;52.344;14.518;2022-07-19T04:11:53;101163.00;;;17.94;100.00
13695;BME280;6919;52.344;14.518;2022-07-19T04:14:22;101161.13;;;18.09;100.00
13695;BME280;6919;52.344;14.518;2022-07-19T04:16:50;101158.78;;;18.21;100.00
13695;BME280;6919;52.344;14.518;2022-07-19T04:19:19;101156.59;;;18.31;100.00
13695;BME280;6919;52.344;14.518;2022-07-19T04:21:47;101157.81;;;18.43;100.00
13695;BME280;6919;52.344;14.518;2022-07-19T04:24:16;101160.88;;;18.54;100.00
13695;BME280;6919;52.344;14.518;2022-07-19T04:26:45;101162.75;;;18.75;100.00
13695;BME280;6919;52.344;14.518;2022-07-19T04:29:14;101160.81;;;18.90;100.00
13695;BME280;6919;52.344;14.518;2022-07-19T04:31:42;101162.25;;;19.07;100.00
13695;BME280;6919;52.344;14.518;2022-07-19T04:34:10;101156.59;;;19.29;100.00
13695;BME280;6919;52.344;14.518;2022-07-19T04:36:38;101163.88;;;19.50;100.00
13695;BME280;6919;52.344;14.518;2022-07-19T04:39:06;101161.56;;;19.74;100.00
13695;BME280;6919;52.344;14.518;2022-07-19T04:41:36;101151.59;;;19.94;100.00
13695;BME280;6919;52.344;14.518;2022-07-19T04:44:04;101161.91;;;20.05;100.00
13695;BME280;6919;52.344;14.518;2022-07-19T04:46:33;101159.28;;;20.12;100.00
13695;BME280;6919;52.344;14.518;2022-07-19T04:49:01;101154.72;;;20.26;100.00
13695;BME280;6919;52.344;14.518;2022-07-19T04:51:29;101160.22;;;20.39;100.00
13695;BME280;6919;52.344;14.518;2022-07-19T04:53:58;101163.00;;;20.58;100.00
13695;BME280;6919;52.344;14.518;2022-07-19T04:56:26;101163.66;;;20.80;100.00
13695;BME280;6919;52.344;14.518;2022-07-19T04:58:55;101162.50;;;21.15;99.37
13695;BME280;6919;52.344;14.518;2022-07-19T05:01:24;101167.53;;;21.37;96.53
13695;BME280;6919;52.344;14.518;2022-07-19T05:03:52;101174.25;;;21.54;93.90
13695;BME280;6919;52.344;14.518;2022-07-19T05:06:20;101179.28;;;21.70;90.66
13695;BME280;6919;52.344;14.518;2022-07-19T05:08:49;101169.63;;;21.81;90.83
13695;BME280;6919;52.344;14.518;2022-07-19T05:11:17;101175.88;;;22.01;88.73
13695;BME280;6919;52.344;14.518;2022-07-19T05:13:45;101176.13;;;21.86;86.12
13695;BME280;6919;52.344;14.518;2022-07-19T05:16:15;101167.47;;;22.02;84.16
13695;BME280;6919;52.344;14.518;2022-07-19T05:18:43;101169.34;;;22.02;81.77
13695;BME280;6919;52.344;14.518;2022-07-19T05:21:11;101172.06;;;22.08;80.11
13695;BME280;6919;52.344;14.518;2022-07-19T05:23:40;101164.75;;;22.02;75.53
13695;BME280;6919;52.344;14.518;2022-07-19T05:26:09;101174.13;;;22.19;74.07
13695;BME280;6919;52.344;14.518;2022-07-19T05:28:37;101175.31;;;22.43;71.38
13695;BME280;6919;52.344;14.518;2022-07-19T05:31:05;101165.53;;;22.66;72.01
13695;BME280;6919;52.344;14.518;2022-07-19T05:33:35;101170.94;;;22.73;69.35
13695;BME280;6919;52.344;14.518;2022-07-19T05:36:04;101165.09;;;22.69;70.08
13695;BME280;6919;52.344;14.518;2022-07-19T05:38:32;101171.25;;;22.96;68.13
13695;BME280;6919;52.344;14.518;2022-07-19T05:41:01;101175.16;;;23.07;67.13
13695;BME280;6919;52.344;14.518;2022-07-19T05:43:29;101177.00;;;23.13;65.51
13695;BME280;6919;52.344;14.518;2022-07-19T05:45:58;101182.88;;;23.16;63.51
13695;BME280;6919;52.344;14.518;2022-07-19T05:48:26;101181.34;;;23.27;62.84
13695;BME280;6919;52.344;14.518;2022-07-19T05:50:56;101178.00;;;23.49;61.73
13695;BME280;6919;52.344;14.518;2022-07-19T05:53:24;101184.53;;;23.73;60.18
13695;BME280;6919;52.344;14.518;2022-07-19T05:55:53;101178.19;;;23.72;59.84
13695;BME280;6919;52.344;14.518;2022-07-19T05:58:22;101184.72;;;23.96;60.22
13695;BME280;6919;52.344;14.518;2022-07-19T06:00:54;101189.44;;;24.07;59.60
13695;BME280;6919;52.344;14.518;2022-07-19T06:03:40;101182.59;;;23.98;58.31
13695;BME280;6919;52.344;14.518;2022-07-19T06:06:10;101191.91;;;23.97;57.60
13695;BME280;6919;52.344;14.518;2022-07-19T06:08:39;101194.78;;;24.02;57.80
13695;BME280;6919;52.344;14.518;2022-07-19T06:11:08;101191.44;;;24.18;58.15
13695;BME280;6919;52.344;14.518;2022-07-19T06:13:36;101186.34;;;24.21;57.92
13695;BME280;6919;52.344;14.518;2022-07-19T06:16:06;101190.88;;;24.45;55.96
13695;BME280;6919;52.344;14.518;2022-07-19T06:18:35;101186.16;;;24.52;55.23
13695;BME280;6919;52.344;14.518;2022-07-19T06:21:08;101192.22;;;24.72;54.22
13695;BME280;6919;52.344;14.518;2022-07-19T06:23:41;101179.47;;;24.66;53.79
13695;BME280;6919;52.344;14.518;2022-07-19T06:26:11;101189.00;;;24.64;53.29
13695;BME280;6919;52.344;14.518;2022-07-19T06:28:39;101184.16;;;24.77;53.03
13695;BME280;6919;52.344;14.518;2022-07-19T06:31:08;101185.06;;;25.01;52.23
13695;BME280;6919;52.344;14.518;2022-07-19T06:33:38;101188.13;;;25.22;51.06
13695;BME280;6919;52.344;14.518;2022-07-19T06:36:08;101191.41;;;25.31;51.75
13695;BME280;6919;52.344;14.518;2022-07-19T06:38:38;101192.22;;;25.31;50.96
13695;BME280;6919;52.344;14.518;2022-07-19T06:41:09;101190.47;;;25.60;50.04
13695;BME280;6919;52.344;14.518;2022-07-19T06:43:38;101188.22;;;26.03;49.88
13695;BME280;6919;52.344;14.518;2022-07-19T06:46:06;101189.72;;;26.22;49.00
13695;BME280;6919;52.344;14.518;2022-07-19T06:48:35;101200.97;;;25.86;48.99
13695;BME280;6919;52.344;14.518;2022-07-19T06:51:06;101191.81;;;26.04;49.15
13695;BME280;6919;52.344;14.518;2022-07-19T06:53:35;101201.91;;;26.26;47.86
13695;BME280;6919;52.344;14.518;2022-07-19T06:56:06;101199.69;;;26.51;47.46
13695;BME280;6919;52.344;14.518;2022-07-19T06:58:34;101196.50;;;26.43;47.55
13695;BME280;6919;52.344;14.518;2022-07-19T07:01:08;101206.63;;;26.65;46.85
13695;BME280;6919;52.344;14.518;2022-07-19T07:03:37;101202.59;;;27.12;47.31
13695;BME280;6919;52.344;14.518;2022-07-19T07:06:06;101196.56;;;27.43;46.92
13695;BME280;6919;52.344;14.518;2022-07-19T07:08:34;101198.72;;;26.97;45.58
13695;BME280;6919;52.344;14.518;2022-07-19T07:11:04;101204.22;;;27.58;46.42
13695;BME280;6919;52.344;14.518;2022-07-19T07:13:33;101207.81;;;27.91;44.30
13695;BME280;6919;52.344;14.518;2022-07-19T07:16:01;101209.06;;;28.00;44.22
13695;BME280;6919;52.344;14.518;2022-07-19T07:18:29;101204.94;;;28.41;43.65
13695;BME280;6919;52.344;14.518;2022-07-19T07:20:58;101215.81;;;28.09;42.54
13695;BME280;6919;52.344;14.518;2022-07-19T07:23:27;101214.75;;;27.77;41.88
13695;BME280;6919;52.344;14.518;2022-07-19T07:25:56;101207.63;;;28.15;41.80
13695;BME280;6919;52.344;14.518;2022-07-19T07:28:25;101203.63;;;28.05;39.98
13695;BME280;6919;52.344;14.518;2022-07-19T07:30:54;101207.50;;;27.88;40.54
13695;BME280;6919;52.344;14.518;2022-07-19T07:33:22;101204.56;;;28.33;41.15
13695;BME280;6919;52.344;14.518;2022-07-19T07:35:51;101205.94;;;29.00;39.79
13695;BME280;6919;52.344;14.518;2022-07-19T07:38:19;101205.63;;;28.48;39.04
13695;BME280;6919;52.344;14.518;2022-07-19T07:40:48;101198.75;;;28.51;41.12
13695;BME280;6919;52.344;14.518;2022-07-19T07:43:38;101203.34;;;29.15;41.80
13695;BME280;6919;52.344;14.518;2022-07-19T07:46:08;101206.59;;;29.07;38.50
13695;BME280;6919;52.344;14.518;2022-07-19T07:48:36;101203.69;;;29.50;38.91
13695;BME280;6919;52.344;14.518;2022-07-19T07:51:05;101204.06;;;29.32;38.58
13695;BME280;6919;52.344;14.518;2022-07-19T07:53:54;101192.53;;;28.87;38.54
13695;BME280;6919;52.344;14.518;2022-07-19T07:56:22;101205.94;;;29.00;38.59
13695;BME280;6919;52.344;14.518;2022-07-19T07:58:52;101192.84;;;29.43;38.69
13695;BME280;6919;52.344;14.518;2022-07-19T08:01:22;101204.00;;;29.90;38.08
13695;BME280;6919;52.344;14.518;2022-07-19T08:03:50;101201.31;;;30.46;38.62
13695;BME280;6919;52.344;14.518;2022-07-19T08:06:18;101206.06;;;30.56;35.97
13695;BME280;6919;52.344;14.518;2022-07-19T08:08:47;101204.97;;;30.62;35.53
13695;BME280;6919;52.344;14.518;2022-07-19T08:11:15;101202.16;;;30.52;34.32
13695;BME280;6919;52.344;14.518;2022-07-19T08:13:43;101200.97;;;30.33;34.05
13695;BME280;6919;52.344;14.518;2022-07-19T08:16:13;101200.09;;;30.84;33.17
13695;BME280;6919;52.344;14.518;2022-07-19T08:18:43;101198.03;;;30.59;32.02
13695;BME280;6919;52.344;14.518;2022-07-19T08:21:12;101198.53;;;30.00;33.05
13695;BME280;6919;52.344;14.518;2022-07-19T08:23:40;101195.94;;;30.20;33.48
13695;BME280;6919;52.344;14.518;2022-07-19T08:26:09;101202.00;;;30.22;32.53
13695;BME280;6919;52.344;14.518;2022-07-19T08:28:37;101203.34;;;30.14;32.62
13695;BME280;6919;52.344;14.518;2022-07-19T08:31:05;101193.63;;;30.12;32.07
13695;BME280;6919;52.344;14.518;2022-07-19T08:33:40;101197.06;;;30.29;31.92
13695;BME280;6919;52.344;14.518;2022-07-19T08:36:08;101189.94;;;30.43;32.08
13695;BME280;6919;52.344;14.518;2022-07-19T08:38:38;101189.75;;;30.69;32.34
13695;BME280;6919;52.344;14.518;2022-07-19T08:41:08;101184.84;;;30.87;31.40
13695;BME280;6919;52.344;14.518;2022-07-19T08:43:36;101197.81;;;30.14;31.35
13695;BME280;6919;52.344;14.518;2022-07-19T08:46:05;101187.75;;;30.50;31.90
13695;BME280;6919;52.344;14.518;2022-07-19T08:48:34;101195.06;;;30.71;30.54
13695;BME280;6919;52.344;14.518;2022-07-19T08:51:17;101184.38;;;31.25;31.14
13695;BME280;6919;52.344;14.518;2022-07-19T08:53:47;101192.16;;;31.78;30.52
13695;BME280;6919;52.344;14.518;2022-07-19T08:56:18;101186.81;;;32.06;30.28
13695;BME280;6919;52.344;14.518;2022-07-19T08:59:03;101197.38;;;31.09;29.58
13695;BME280;6919;52.344;14.518;2022-07-19T09:01:32;101195.25;;;30.54;30.93
13695;BME280;6919;52.344;14.518;2022-07-19T09:04:14;101192.31;;;30.86;30.06
13695;BME280;6919;52.344;14.518;2022-07-19T09:06:47;101185.25;;;30.43;30.58
13695;BME280;6919;52.344;14.518;2022-07-19T09:09:18;101192.13;;;30.31;30.48
13695;BME280;6919;52.344;14.518;2022-07-19T09:11:49;101188.81;;;30.34;31.04
13695;BME280;6919;52.344;14.518;2022-07-19T09:14:21;101184.59;;;30.93;31.37
13695;BME280;6919;52.344;14.518;2022-07-19T09:16:53;101186.88;;;31.81;32.19
13695;BME280;6919;52.344;14.518;2022-07-19T09:19:24;101188.25;;;31.59;29.92
13695;BME280;6919;52.344;14.518;2022-07-19T09:21:58;101185.78;;;31.57;30.10
13695;BME280;6919;52.344;14.518;2022-07-19T09:24:28;101176.91;;;31.55;30.89
13695;BME280;6919;52.344;14.518;2022-07-19T09:27:05;101174.41;;;31.74;31.42
13695;BME280;6919;52.344;14.518;2022-07-19T09:29:36;101175.25;;;31.49;30.67
13695;BME280;6919;52.344;14.518;2022-07-19T09:32:11;101175.53;;;31.28;30.57
13695;BME280;6919;52.344;14.518;2022-07-19T09:34:42;101179.91;;;31.19;30.40
13695;BME280;6919;52.344;14.518;2022-07-19T09:37:19;101171.34;;;31.70;30.23
13695;BME280;6919;52.344;14.518;2022-07-19T09:39:51;101178.00;;;31.59;29.59
13695;BME280;6919;52.344;14.518;2022-07-19T09:42:23;101166.63;;;31.96;30.37
13695;BME280;6919;52.344;14.518;2022-07-19T09:45:00;101169.28;;;32.36;29.66
13695;BME280;6919;52.344;14.518;2022-07-19T09:47:33;101162.22;;;32.63;30.25
13695;BME280;6919;52.344;14.518;2022-07-19T09:50:06;101169.66;;;32.04;29.19
13695;BME280;6919;52.344;14.518;2022-07-19T09:52:37;101165.25;;;31.38;29.69
13695;BME280;6919;52.344;14.518;2022-07-19T09:55:15;101163.59;;;31.72;30.07
13695;BME280;6919;52.344;14.518;2022-07-19T09:57:48;101161.38;;;31.19;29.28
13695;BME280;6919;52.344;14.518;2022-07-19T10:00:20;101158.88;;;31.63;29.94
13695;BME280;6919;52.344;14.518;2022-07-19T10:02:51;101157.50;;;31.35;29.81
13695;BME280;6919;52.344;14.518;2022-07-19T10:05:23;101159.13;;;31.71;30.56
13695;BME280;6919;52.344;14.518;2022-07-19T10:07:53;101153.88;;;31.85;29.75
13695;BME280;6919;52.344;14.518;2022-07-19T10:10:24;101158.59;;;31.39;29.49
13695;BME280;6919;52.344;14.518;2022-07-19T10:12:58;101150.16;;;32.19;29.82
13695;BME280;6919;52.344;14.518;2022-07-19T10:15:27;101154.59;;;32.20;28.84
13695;BME280;6919;52.344;14.518;2022-07-19T10:18:11;101155.28;;;31.82;28.88
13695;BME280;6919;52.344;14.518;2022-07-19T10:20:44;101145.31;;;32.50;29.06
13695;BME280;6919;52.344;14.518;2022-07-19T10:23:15;101149.63;;;32.76;28.91
13695;BME280;6919;52.344;14.518;2022-07-19T10:25:45;101145.56;;;31.80;29.27
13695;BME280;6919;52.344;14.518;2022-07-19T10:28:32;101135.88;;;31.62;29.20
13695;BME280;6919;52.344;14.518;2022-07-19T10:31:26;101135.16;;;32.20;29.66
13695;BME280;6919;52.344;14.518;2022-07-19T10:34:03;101131.16;;;31.63;29.12
13695;BME280;6919;52.344;14.518;2022-07-19T10:36:37;101134.13;;;32.01;29.63
13695;BME280;6919;52.344;14.518;2022-07-19T10:39:28;101125.00;;;32.59;29.36
13695;BME280;6919;52.344;14.518;2022-07-19T10:42:16;101127.09;;;32.82;28.60
13695;BME280;6919;52.344;14.518;2022-07-19T10:45:14;101130.63;;;33.32;28.13
13695;BME280;6919;52.344;14.518;2022-07-19T10:48:09;101121.72;;;33.92;27.46
13695;BME280;6919;52.344;14.518;2022-07-19T10:51:02;101122.94;;;33.52;28.64
13695;BME280;6919;52.344;14.518;2022-07-19T10:54:00;101119.78;;;32.96;28.05
13695;BME280;6919;52.344;14.518;2022-07-19T10:56:41;101111.88;;;33.13;27.46
13695;BME280;6919;52.344;14.518;2022-07-19T10:59:38;101114.44;;;33.05;26.56
13695;BME280;6919;52.344;14.518;2022-07-19T11:02:21;101114.94;;;33.46;27.52
13695;BME280;6919;52.344;14.518;2022-07-19T11:05:21;101108.03;;;33.95;26.38
13695;BME280;6919;52.344;14.518;2022-07-19T11:07:51;101112.84;;;34.37;26.02
13695;BME280;6919;52.344;14.518;2022-07-19T11:10:24;101107.63;;;34.49;24.47
13695;BME280;6919;52.344;14.518;2022-07-19T11:12:56;101102.88;;;34.68;26.20
13695;BME280;6919;52.344;14.518;2022-07-19T11:15:25;101103.88;;;34.77;25.51
13695;BME280;6919;52.344;14.518;2022-07-19T11:18:04;101092.66;;;35.00;25.48
13695;BME280;6919;52.344;14.518;2022-07-19T11:20:35;101096.53;;;35.18;25.17
13695;BME280;6919;52.344;14.518;2022-07-19T11:23:04;101094.53;;;34.68;24.12
13695;BME280;6919;52.344;14.518;2022-07-19T11:25:35;101096.28;;;34.22;25.57
13695;BME280;6919;52.344;14.518;2022-07-19T11:28:19;101095.31;;;34.92;25.70
13695;BME280;6919;52.344;14.518;2022-07-19T11:30:48;101081.56;;;34.40;25.38
13695;BME280;6919;52.344;14.518;2022-07-19T11:33:19;101084.66;;;34.15;24.99
13695;BME280;6919;52.344;14.518;2022-07-19T11:35:56;101078.38;;;34.28;25.66
13695;BME280;6919;52.344;14.518;2022-07-19T11:38:35;101090.06;;;34.30;24.53
13695;BME280;6919;52.344;14.518;2022-07-19T11:41:07;101078.50;;;34.97;24.32
13695;BME280;6919;52.344;14.518;2022-07-19T11:43:37;101080.50;;;35.10;24.69
13695;BME280;6919;52.344;14.518;2022-07-19T11:46:06;101086.38;;;35.08;23.98
13695;BME280;6919;52.344;14.518;2022-07-19T11:48:34;101077.81;;;35.05;24.14
13695;BME280;6919;52.344;14.518;2022-07-19T11:51:06;101073.06;;;35.37;23.81
13695;BME280;6919;52.344;14.518;2022-07-19T11:53:38;101077.00;;;35.82;23.38
13695;BME280;6919;52.344;14.518;2022-07-19T11:56:19;101069.50;;;36.32;23.29
13695;BME280;6919;52.344;14.518;2022-07-19T11:58:50;101067.44;;;36.37;23.77
13695;BME280;6919;52.344;14.518;2022-07-19T12:01:27;101076.81;;;36.41;23.35
13695;BME280;6919;52.344;14.518;2022-07-19T12:03:58;101077.19;;;36.75;22.73
13695;BME280;6919;52.344;14.518;2022-07-19T12:06:36;101073.31;;;36.22;22.62
13695;BME280;6919;52.344;14.518;2022-07-19T12:09:07;101084.41;;;36.14;22.73
13695;BME280;6919;52.344;14.518;2022-07-19T12:11:40;101076.91;;;35.41;23.17
13695;BME280;6919;52.344;14.518;2022-07-19T12:14:23;101071.16;;;35.92;22.96
13695;BME280;6919;52.344;14.518;2022-07-19T12:17:12;101077.34;;;35.76;23.00
13695;BME280;6919;52.344;14.518;2022-07-19T12:19:43;101073.81;;;35.43;23.42
13695;BME280;6919;52.344;14.518;2022-07-19T12:22:34;101075.31;;;35.81;23.48
13695;BME280;6919;52.344;14.518;2022-07-19T12:25:05;101076.44;;;35.67;23.55
13695;BME280;6919;52.344;14.518;2022-07-19T12:27:35;101069.94;;;35.07;23.22
13695;BME280;6919;52.344;14.518;2022-07-19T12:30:06;101063.28;;;35.40;23.41
13695;BME280;6919;52.344;14.518;2022-07-19T12:32:37;101069.63;;;35.86;23.60
13695;BME280;6919;52.344;14.518;2022-07-19T12:35:13;101068.75;;;36.40;22.75
13695;BME280;6919;52.344;14.518;2022-07-19T12:37:44;101069.53;;;35.91;22.05
13695;BME280;6919;52.344;14.518;2022-07-19T12:40:18;101073.19;;;36.54;22.34
13695;BME280;6919;52.344;14.518;2022-07-19T12:42:51;101071.69;;;36.70;21.82
13695;BME280;6919;52.344;14.518;2022-07-19T12:45:30;101063.72;;;36.99;22.12
13695;BME280;6919;52.344;14.518;2022-07-19T12:47:59;101060.31;;;36.67;21.69
13695;BME280;6919;52.344;14.518;2022-07-19T12:50:31;101066.72;;;36.05;21.74
13695;BME280;6919;52.344;14.518;2022-07-19T12:53:02;101066.19;;;36.16;22.29
13695;BME280;6919;52.344;14.518;2022-07-19T12:55:33;101062.19;;;36.58;20.61
13695;BME280;6919;52.344;14.518;2022-07-19T12:58:04;101053.78;;;36.93;21.24
13695;BME280;6919;52.344;14.518;2022-07-19T13:00:36;101044.78;;;36.96;21.99
13695;BME280;6919;52.344;14.518;2022-07-19T13:03:05;101048.50;;;37.14;20.95
13695;BME280;6919;52.344;14.518;2022-07-19T13:05:35;101050.34;;;37.79;21.10